METAR Data
IDs: Format: Raw Decoded Include TAF

Data at: 0858 UTC 13 Aug 2022

KGRR 130853Z AUTO 15004KT 9SM -RA FEW090 BKN110 16/13 A3018 RMK AO2 RAB09 SLP218 P0000 60000 T01610133 55000